Time;durP1;ratioP1;P1;durP2;ratioP2;P2;SDS_P1;SDS_P2;PMS_P1;PMS_P2;Temp;Humidity;BMP_temperature;BMP_pressure;BME280_temperature;BME280_humidity;BME280_pressure;Samples;Min_cycle;Max_cycle;Signal;HPM_P1;HPM_P2
2022/05/04 00:01:47;;;;;;;5.15;2.30;;;8.80;99.90;;;;;;5075583;28;20040;-77
2022/05/04 00:04:13;;;;;;;5.13;2.20;;;8.80;99.90;;;;;;5075938;28;20051;-76
2022/05/04 00:06:38;;;;;;;6.32;2.78;;;8.80;99.90;;;;;;5076458;28;20484;-76
2022/05/04 00:09:04;;;;;;;8.68;2.75;;;8.70;99.90;;;;;;5074743;28;20088;-77
2022/05/04 00:11:30;;;;;;;10.48;3.05;;;8.80;99.90;;;;;;5076669;28;20055;-77
2022/05/04 00:13:56;;;;;;;4.60;2.20;;;8.80;99.90;;;;;;5074731;28;20066;-76
2022/05/04 00:16:22;;;;;;;8.45;2.30;;;8.80;99.90;;;;;;5076067;28;20041;-77
2022/05/04 00:18:48;;;;;;;6.03;2.30;;;8.80;99.90;;;;;;5075287;28;20049;-77
2022/05/04 00:21:14;;;;;;;5.80;2.15;;;8.80;99.90;;;;;;5075183;28;20154;-77
2022/05/04 00:23:39;;;;;;;10.30;2.72;;;8.80;99.90;;;;;;5075706;28;20067;-77
2022/05/04 00:26:05;;;;;;;11.43;4.30;;;8.80;99.90;;;;;;5074804;28;20078;-76
2022/05/04 00:28:31;;;;;;;5.38;2.30;;;8.80;99.90;;;;;;5076482;28;20055;-77
2022/05/04 00:30:57;;;;;;;4.07;2.00;;;8.70;99.90;;;;;;5075304;28;20050;-77
2022/05/04 00:33:22;;;;;;;5.43;2.20;;;8.70;99.90;;;;;;5076334;28;20271;-77
2022/05/04 00:35:48;;;;;;;6.85;2.03;;;8.70;99.90;;;;;;5058282;28;20083;-77
2022/05/04 00:38:14;;;;;;;6.25;2.03;;;8.70;99.90;;;;;;5075934;28;20052;-77
2022/05/04 00:40:39;;;;;;;7.38;2.38;;;8.70;99.90;;;;;;5058931;28;20471;-77
2022/05/04 00:43:22;;;;;;;6.57;2.30;;;8.60;99.90;;;;;;5058079;28;20098;-77
2022/05/04 00:45:48;;;;;;;7.53;3.50;;;8.60;99.90;;;;;;5076652;28;20048;-78
2022/05/04 00:48:15;;;;;;;8.10;2.30;;;8.60;99.90;;;;;;5044140;28;20124;-77
2022/05/04 00:50:41;;;;;;;8.25;2.45;;;8.60;99.90;;;;;;5079398;28;20056;-77
2022/05/04 00:53:07;;;;;;;6.97;2.13;;;8.60;99.90;;;;;;5078687;28;20079;-77
2022/05/04 00:55:33;;;;;;;6.88;3.47;;;8.70;99.90;;;;;;5062715;28;20044;-77
2022/05/04 01:00:45;;;;;;;11.32;2.65;;;8.70;99.90;;;;;;5078134;28;20037;-77
2022/05/04 01:03:11;;;;;;;6.45;2.10;;;8.70;99.90;;;;;;5079870;28;20074;-77
2022/05/04 01:05:37;;;;;;;7.10;2.30;;;8.70;99.90;;;;;;5061644;28;20048;-76
2022/05/04 01:08:03;;;;;;;5.05;1.80;;;8.70;99.90;;;;;;5079531;28;20059;-76
2022/05/04 01:10:28;;;;;;;5.53;2.30;;;8.70;99.90;;;;;;5062338;28;20052;-76
2022/05/04 01:12:54;;;;;;;7.18;2.47;;;8.70;99.90;;;;;;5078838;28;20060;-76
2022/05/04 01:15:22;;;;;;;5.45;2.30;;;8.10;99.90;;;;;;5079199;28;20123;-76
2022/05/04 01:17:48;;;;;;;6.43;2.13;;;8.70;99.90;;;;;;5078127;28;20078;-76
2022/05/04 01:20:14;;;;;;;6.05;2.30;;;8.70;99.90;;;;;;5062033;28;20043;-76
2022/05/04 01:22:40;;;;;;;6.95;2.10;;;8.70;99.90;;;;;;5077904;28;20044;-76
2022/05/04 01:25:06;;;;;;;6.25;2.20;;;8.70;99.90;;;;;;5062106;28;20041;-76
2022/05/04 01:27:32;;;;;;;6.60;2.58;;;8.70;99.90;;;;;;5061599;28;20480;-76
2022/05/04 01:29:58;;;;;;;8.35;2.20;;;8.70;99.90;;;;;;5061619;28;20045;-76
2022/05/04 01:32:24;;;;;;;5.90;2.42;;;8.60;99.90;;;;;;5062583;28;20092;-76
2022/05/04 01:34:50;;;;;;;5.95;2.05;;;8.60;99.90;;;;;;5077854;28;20048;-76
2022/05/04 01:37:16;;;;;;;7.85;2.53;;;8.60;99.90;;;;;;5061459;28;20112;-76
2022/05/04 01:39:42;;;;;;;5.93;2.50;;;8.60;99.90;;;;;;5044544;28;20043;-76
2022/05/04 01:42:13;;;;;;;6.47;2.33;;;8.70;99.90;;;;;;5062098;28;20056;-76
2022/05/04 01:44:41;;;;;;;8.43;2.53;;;8.60;99.90;;;;;;5077906;28;20067;-77
2022/05/04 01:47:07;;;;;;;6.97;2.78;;;8.60;99.90;;;;;;5078044;28;20072;-76
2022/05/04 01:49:33;;;;;;;6.25;2.70;;;8.60;99.90;;;;;;5062035;28;20048;-76
2022/05/04 01:51:59;;;;;;;5.57;2.47;;;8.60;99.90;;;;;;5060230;28;20077;-77
2022/05/04 01:54:25;;;;;;;4.20;2.45;;;8.60;99.90;;;;;;5078991;28;20076;-77
2022/05/04 01:56:51;;;;;;;6.68;2.30;;;8.60;99.90;;;;;;5077257;28;20072;-76
2022/05/04 01:59:17;;;;;;;6.90;1.98;;;8.60;99.90;;;;;;5077563;28;20075;-77
2022/05/04 02:01:43;;;;;;;7.03;2.45;;;8.60;99.90;;;;;;5060415;28;20500;-76
2022/05/04 02:04:08;;;;;;;5.47;2.03;;;8.50;99.90;;;;;;5061193;28;20052;-76
2022/05/04 02:06:36;;;;;;;7.65;2.42;;;8.40;99.90;;;;;;5061257;28;20048;-76
2022/05/04 02:09:03;;;;;;;6.85;2.28;;;8.40;99.90;;;;;;5076866;28;20052;-77
2022/05/04 02:11:32;;;;;;;4.88;2.42;;;8.40;99.90;;;;;;5078336;28;20122;-77
2022/05/04 02:14:03;;;;;;;5.00;2.00;;;8.40;99.90;;;;;;5075887;28;20060;-76
2022/05/04 02:16:29;;;;;;;6.50;2.50;;;8.40;99.90;;;;;;5077547;28;20036;-76
2022/05/04 02:18:55;;;;;;;4.65;2.30;;;8.40;99.90;;;;;;5076941;28;20083;-77
2022/05/04 02:21:21;;;;;;;5.45;2.22;;;8.40;99.90;;;;;;5076440;28;20048;-77
2022/05/04 02:23:47;;;;;;;7.20;2.90;;;8.40;99.90;;;;;;5044858;28;20060;-77
2022/05/04 02:26:12;;;;;;;4.88;2.10;;;8.30;99.90;;;;;;5076055;28;20092;-77
2022/05/04 02:28:38;;;;;;;4.40;1.90;;;8.30;99.90;;;;;;5078054;28;20064;-76
2022/05/04 02:31:04;;;;;;;5.60;2.20;;;8.30;99.90;;;;;;5059401;28;20052;-77
2022/05/04 02:33:30;;;;;;;10.70;3.05;;;8.30;99.90;;;;;;5046739;28;20049;-77
2022/05/04 02:38:40;;;;;;;6.38;2.40;;;8.20;99.90;;;;;;5076771;28;20044;-77
2022/05/04 02:41:06;;;;;;;5.57;2.00;;;8.20;99.90;;;;;;5061333;28;20051;-76
2022/05/04 02:43:32;;;;;;;6.10;1.95;;;8.20;99.90;;;;;;5059692;28;20072;-76
2022/05/04 02:46:11;;;;;;;4.63;2.15;;;8.20;99.90;;;;;;5061205;28;20049;-76
2022/05/04 02:48:38;;;;;;;5.93;2.67;;;8.10;99.90;;;;;;5059733;28;20044;-77
2022/05/04 02:51:04;;;;;;;8.00;2.33;;;8.10;99.90;;;;;;5076518;28;20044;-76
2022/05/04 02:53:29;;;;;;;5.68;2.10;;;8.10;99.90;;;;;;5060043;28;20048;-77
2022/05/04 02:55:55;;;;;;;10.07;2.92;;;8.00;99.90;;;;;;5076563;28;20064;-77
2022/05/04 02:58:21;;;;;;;8.23;2.33;;;7.90;99.90;;;;;;5077294;28;20052;-77
2022/05/04 03:00:47;;;;;;;6.03;2.60;;;8.00;99.90;;;;;;5075839;28;20052;-77
2022/05/04 03:03:12;;;;;;;4.63;2.10;;;8.00;99.90;;;;;;5077419;28;20040;-77
2022/05/04 03:05:38;;;;;;;5.40;2.15;;;7.90;99.90;;;;;;5059371;28;20072;-77
2022/05/04 03:08:04;;;;;;;8.05;3.22;;;7.90;99.90;;;;;;5077290;28;20048;-77
2022/05/04 03:11:54;;;;;;;6.90;2.25;;;7.90;99.90;;;;;;5058814;28;20074;-77
2022/05/04 03:13:15;;;;;;;5.47;2.40;;;7.90;99.90;;;;;;5075986;28;20052;-76
2022/05/04 03:15:41;;;;;;;6.65;2.47;;;7.90;99.90;;;;;;5043629;28;20523;-77
2022/05/04 03:18:07;;;;;;;4.60;2.30;;;7.90;99.90;;;;;;5059319;28;20109;-77
2022/05/04 03:20:32;;;;;;;5.30;2.00;;;7.80;99.90;;;;;;5059943;28;20128;-77
2022/05/04 03:22:58;;;;;;;8.68;2.30;;;7.80;99.90;;;;;;5059611;28;20146;-77
2022/05/04 03:25:24;;;;;;;6.63;2.72;;;7.80;99.90;;;;;;5056847;28;20053;-77
2022/05/04 03:27:50;;;;;;;7.28;2.45;;;7.70;99.90;;;;;;5057055;28;20116;-77
2022/05/04 03:30:15;;;;;;;6.53;2.60;;;7.60;99.90;;;;;;5073136;28;20586;-77
2022/05/04 03:32:41;;;;;;;4.57;2.30;;;7.60;99.90;;;;;;5074035;28;20045;-78
2022/05/04 03:35:07;;;;;;;8.00;2.60;;;7.50;99.90;;;;;;5058049;28;20102;-78
2022/05/04 03:37:32;;;;;;;6.72;2.47;;;7.40;99.90;;;;;;5060475;28;20036;-78
2022/05/04 03:39:58;;;;;;;7.13;2.28;;;7.30;99.90;;;;;;5075467;28;20056;-77
2022/05/04 03:42:24;;;;;;;9.23;3.35;;;7.30;99.90;;;;;;5043361;28;20060;-77
2022/05/04 03:44:50;;;;;;;5.35;2.40;;;7.40;99.90;;;;;;5076308;28;20599;-78
2022/05/04 03:47:16;;;;;;;7.35;3.20;;;7.40;99.90;;;;;;5059308;28;20072;-78
2022/05/04 03:49:41;;;;;;;14.13;3.03;;;7.20;99.90;;;;;;5060601;28;20053;-77
2022/05/04 03:52:09;;;;;;;9.52;3.30;;;7.20;99.90;;;;;;5075181;28;20163;-77
2022/05/04 03:54:35;;;;;;;6.63;2.05;;;7.10;99.90;;;;;;5076636;28;20045;-78
2022/05/04 03:57:01;;;;;;;4.07;2.45;;;7.10;99.90;;;;;;5075619;28;20045;-77
2022/05/04 03:59:26;;;;;;;4.90;2.72;;;7.10;99.90;;;;;;5075734;28;20731;-77
2022/05/04 04:01:52;;;;;;;8.25;2.65;;;7.20;99.90;;;;;;5041881;28;20051;-77
2022/05/04 04:04:18;;;;;;;5.60;2.13;;;7.20;99.90;;;;;;5059365;28;20059;-77
2022/05/04 04:06:43;;;;;;;9.32;3.20;;;7.20;99.90;;;;;;5060144;28;20040;-77
2022/05/04 04:09:09;;;;;;;7.32;2.65;;;7.20;99.90;;;;;;5075115;28;20051;-77
2022/05/04 04:11:35;;;;;;;8.25;2.72;;;7.20;99.90;;;;;;5060123;28;20090;-76
2022/05/04 04:14:00;;;;;;;6.22;2.50;;;7.20;99.90;;;;;;5074764;28;20063;-77
2022/05/04 04:16:26;;;;;;;4.28;2.20;;;7.30;99.90;;;;;;5058272;28;20078;-77
2022/05/04 04:18:52;;;;;;;7.07;2.45;;;7.30;99.90;;;;;;5057329;28;20064;-77
2022/05/04 04:24:02;;;;;;;6.20;2.20;;;7.30;99.90;;;;;;5080646;28;20486;-77
2022/05/04 04:26:28;;;;;;;8.35;2.80;;;7.30;99.90;;;;;;5062184;28;20049;-77
2022/05/04 04:28:54;;;;;;;8.95;2.42;;;7.30;99.90;;;;;;5078473;28;20076;-77
2022/05/04 04:31:19;;;;;;;10.30;3.10;;;7.30;99.90;;;;;;5062053;28;20105;-77
2022/05/04 04:33:45;;;;;;;7.75;2.92;;;7.30;99.90;;;;;;5080137;28;20081;-76
2022/05/04 04:36:11;;;;;;;6.13;2.30;;;7.30;99.90;;;;;;5046071;28;20036;-76
2022/05/04 04:38:36;;;;;;;6.32;2.58;;;7.30;99.90;;;;;;5045989;28;20048;-76
2022/05/04 04:41:02;;;;;;;4.65;2.55;;;7.50;99.90;;;;;;5079972;28;20119;-76
2022/05/04 04:43:28;;;;;;;11.88;3.75;;;7.50;99.90;;;;;;5078486;28;20045;-76
2022/05/04 04:45:53;;;;;;;7.40;3.13;;;7.60;99.90;;;;;;5043654;28;20049;-77
2022/05/04 04:48:21;;;;;;;6.70;2.42;;;7.50;99.90;;;;;;5067209;28;20036;-77
2022/05/04 04:50:47;;;;;;;7.88;2.47;;;7.60;99.90;;;;;;5062430;28;20048;-76
2022/05/04 04:53:14;;;;;;;8.13;2.80;;;7.70;99.90;;;;;;5079235;28;20078;-76
2022/05/04 04:55:46;;;;;;;8.82;2.85;;;7.70;99.90;;;;;;5062187;28;20047;-77
2022/05/04 04:58:13;;;;;;;8.57;2.60;;;7.70;99.90;;;;;;5079635;28;20063;-76
2022/05/04 05:00:40;;;;;;;6.95;2.50;;;7.80;99.90;;;;;;5061347;28;20048;-77
2022/05/04 05:03:06;;;;;;;7.30;2.35;;;7.10;99.90;;;;;;5062978;28;20048;-76
2022/05/04 05:05:32;;;;;;;7.55;2.53;;;7.90;99.90;;;;;;5078702;28;20044;-77
2022/05/04 05:07:58;;;;;;;4.15;1.92;;;7.90;99.90;;;;;;5079121;28;20052;-77
2022/05/04 05:10:24;;;;;;;5.68;2.72;;;7.90;99.90;;;;;;5078740;28;20041;-77
2022/05/04 05:12:51;;;;;;;6.32;2.42;;;7.90;99.90;;;;;;5078170;28;20135;-77
2022/05/04 05:18:03;;;;;;;9.07;2.38;;;8.00;99.90;;;;;;5078018;28;20066;-77
2022/05/04 05:20:30;;;;;;;7.50;2.53;;;8.00;99.90;;;;;;5078779;28;20078;-76
2022/05/04 05:22:57;;;;;;;5.13;2.47;;;8.00;99.90;;;;;;5078354;28;20044;-76
2022/05/04 05:25:24;;;;;;;7.55;2.60;;;8.10;99.90;;;;;;5045493;28;20044;-76
2022/05/04 05:27:49;;;;;;;10.23;3.22;;;8.10;99.90;;;;;;5078735;28;20043;-76
2022/05/04 05:30:15;;;;;;;4.35;2.53;;;8.20;99.90;;;;;;5061100;28;20111;-76
2022/05/04 05:32:41;;;;;;;5.90;2.38;;;8.30;99.90;;;;;;5049444;28;20044;-75
2022/05/04 05:35:07;;;;;;;6.65;2.58;;;8.30;99.90;;;;;;5040224;28;20076;-76
2022/05/04 05:37:33;;;;;;;6.03;2.85;;;8.40;99.90;;;;;;5075428;28;20097;-76
2022/05/04 05:39:59;;;;;;;6.97;2.28;;;8.40;99.90;;;;;;5077813;28;20131;-77
2022/05/04 05:42:24;;;;;;;5.20;1.88;;;8.40;99.90;;;;;;5061818;28;20789;-77
2022/05/04 05:44:50;;;;;;;9.13;2.40;;;8.40;99.90;;;;;;5078269;28;20054;-77
2022/05/04 05:47:17;;;;;;;7.40;1.90;;;8.50;99.90;;;;;;5060452;28;20068;-77
2022/05/04 05:49:42;;;;;;;8.27;3.47;;;8.50;99.90;;;;;;5042516;28;20079;-76
2022/05/04 05:52:08;;;;;;;5.85;2.13;;;8.60;99.90;;;;;;5056045;28;20048;-77
2022/05/04 05:54:34;;;;;;;7.50;2.22;;;8.60;99.90;;;;;;5061827;28;20075;-76
2022/05/04 05:57:00;;;;;;;5.63;1.90;;;8.60;99.90;;;;;;5077939;28;20055;-76
2022/05/04 05:59:26;;;;;;;4.10;2.13;;;8.70;99.90;;;;;;5061544;28;20040;-76
2022/05/04 06:01:51;;;;;;;5.28;2.25;;;8.80;99.90;;;;;;5077744;28;20056;-77
2022/05/04 06:04:17;;;;;;;6.50;2.72;;;8.80;99.90;;;;;;5061200;28;20048;-76
2022/05/04 06:06:43;;;;;;;5.20;1.95;;;8.80;99.90;;;;;;5078765;28;20465;-77
2022/05/04 06:09:09;;;;;;;5.35;1.92;;;8.90;99.90;;;;;;5040562;28;20586;-76
2022/05/04 06:11:35;;;;;;;6.13;2.20;;;8.90;99.90;;;;;;5062948;28;20044;-77
2022/05/04 06:14:01;;;;;;;7.88;2.22;;;9.00;99.90;;;;;;5027339;28;20412;-77
2022/05/04 06:16:27;;;;;;;8.07;1.83;;;9.00;99.90;;;;;;5077828;28;20544;-77
2022/05/04 06:18:53;;;;;;;6.05;2.03;;;9.10;99.90;;;;;;5055034;28;20863;-76
2022/05/04 06:21:19;;;;;;;4.88;2.00;;;9.20;99.90;;;;;;5043235;28;20079;-76
2022/05/04 06:23:45;;;;;;;3.95;1.85;;;9.20;99.90;;;;;;5061692;28;20104;-76
2022/05/04 06:26:10;;;;;;;6.32;1.77;;;9.30;99.90;;;;;;5076436;28;20044;-77
2022/05/04 06:28:36;;;;;;;7.20;1.58;;;9.30;99.90;;;;;;5061180;28;20044;-78
2022/05/04 06:36:30;;;;;;;7.78;2.10;;;9.40;99.90;;;;;;5077379;28;20536;-76
2022/05/04 06:38:56;;;;;;;7.47;2.28;;;9.40;99.90;;;;;;5059386;28;20047;-77
2022/05/04 06:41:22;;;;;;;6.32;1.90;;;9.50;99.90;;;;;;5061062;28;20511;-76
2022/05/04 06:43:48;;;;;;;5.72;2.08;;;9.60;99.90;;;;;;5059469;28;20045;-77
2022/05/04 06:46:15;;;;;;;4.70;1.85;;;9.60;99.90;;;;;;5060705;28;20052;-77
2022/05/04 06:48:41;;;;;;;5.32;1.70;;;9.60;99.90;;;;;;5076178;28;20076;-77
2022/05/04 06:51:07;;;;;;;5.88;2.00;;;9.60;99.90;;;;;;5060062;28;20040;-77
2022/05/04 06:53:33;;;;;;;6.75;2.25;;;9.60;99.90;;;;;;5077568;28;20048;-77
2022/05/04 06:55:59;;;;;;;6.68;2.00;;;9.60;99.90;;;;;;5059586;28;20253;-78
2022/05/04 06:58:25;;;;;;;4.47;1.92;;;9.70;99.90;;;;;;5077341;28;20044;-78
2022/05/04 07:00:51;;;;;;;9.85;2.58;;;9.70;99.90;;;;;;5075980;28;20346;-79
2022/05/04 07:03:17;;;;;;;3.72;1.77;;;9.70;99.90;;;;;;5077088;28;20083;-78
2022/05/04 07:05:43;;;;;;;7.43;1.90;;;9.80;99.90;;;;;;5059495;28;20040;-78
2022/05/04 07:08:09;;;;;;;6.45;2.17;;;9.80;99.90;;;;;;5060098;28;20103;-75
2022/05/04 07:10:35;;;;;;;5.82;2.03;;;9.90;99.90;;;;;;5060073;28;20033;-78
2022/05/04 07:13:01;;;;;;;7.70;2.10;;;10.00;99.90;;;;;;5059566;28;20041;-79
2022/05/04 07:15:27;;;;;;;4.78;1.92;;;10.10;99.90;;;;;;5060238;28;20052;-77
2022/05/04 07:17:52;;;;;;;6.60;2.67;;;10.10;99.90;;;;;;5053764;28;20040;-77
2022/05/04 07:20:18;;;;;;;4.25;1.83;;;10.10;99.90;;;;;;5080808;28;20063;-76
2022/05/04 07:22:44;;;;;;;5.40;2.00;;;10.20;99.90;;;;;;5038486;28;20083;-77
2022/05/04 07:25:10;;;;;;;6.30;2.63;;;10.30;99.90;;;;;;5058109;28;20056;-79
2022/05/04 07:27:36;;;;;;;6.15;2.20;;;10.40;99.90;;;;;;5060294;28;20041;-78
2022/05/04 07:30:03;;;;;;;4.22;2.15;;;10.40;99.90;;;;;;5049874;28;20041;-77
2022/05/04 07:32:29;;;;;;;6.13;2.20;;;10.40;99.90;;;;;;5052871;28;20400;-76
2022/05/04 07:34:54;;;;;;;8.18;2.30;;;10.40;99.90;;;;;;5070553;28;20051;-78
2022/05/04 07:37:20;;;;;;;6.82;2.10;;;10.50;99.90;;;;;;5076035;28;20051;-79
2022/05/04 07:42:30;;;;;;;3.78;2.00;;;10.50;99.90;;;;;;5057168;28;20048;-76
2022/05/04 07:44:59;;;;;;;5.30;1.98;;;10.60;99.90;;;;;;5075864;28;20052;-77
2022/05/04 07:47:26;;;;;;;5.38;2.28;;;10.60;99.90;;;;;;5057662;28;20052;-78
2022/05/04 07:49:51;;;;;;;5.32;1.95;;;10.60;99.90;;;;;;5076670;28;20068;-76
2022/05/04 07:52:17;;;;;;;6.53;1.90;;;10.60;99.90;;;;;;5074405;28;20049;-77
2022/05/04 07:54:43;;;;;;;3.28;2.00;;;10.80;99.90;;;;;;5039630;28;20055;-77
2022/05/04 07:57:09;;;;;;;4.65;2.10;;;11.00;99.90;;;;;;5044061;28;20096;-77
2022/05/04 07:59:35;;;;;;;5.97;2.15;;;11.10;99.90;;;;;;5062835;28;20123;-80
2022/05/04 08:04:45;;;;;;;6.30;2.15;;;11.10;99.90;;;;;;5078907;28;20044;-77
2022/05/04 08:07:11;;;;;;;5.68;2.15;;;11.10;99.90;;;;;;5080485;28;20094;-78
2022/05/04 08:09:36;;;;;;;6.15;2.50;;;11.20;99.90;;;;;;5061591;28;20044;-77
2022/05/04 08:12:08;;;;;;;8.43;2.60;;;11.20;99.90;;;;;;5079795;28;20044;-76
2022/05/04 08:14:34;;;;;;;4.22;2.10;;;11.20;99.90;;;;;;5072838;28;20052;-77
2022/05/04 08:17:01;;;;;;;5.22;2.20;;;11.20;99.90;;;;;;5062091;28;20059;-78
2022/05/04 08:19:27;;;;;;;5.10;2.63;;;11.20;99.90;;;;;;5084891;28;20047;-78
2022/05/04 08:21:54;;;;;;;6.70;2.25;;;11.30;99.90;;;;;;5065379;28;20074;-78
2022/05/04 08:24:20;;;;;;;6.13;2.50;;;11.40;99.90;;;;;;5073471;28;20082;-76
2022/05/04 08:26:46;;;;;;;7.38;2.50;;;11.30;99.90;;;;;;5091135;28;20072;-78
2022/05/04 08:29:12;;;;;;;5.40;2.33;;;11.30;99.90;;;;;;5085169;28;20127;-82
2022/05/04 08:31:40;;;;;;;6.50;2.60;;;11.20;99.90;;;;;;5083481;28;20052;-78
2022/05/04 08:34:07;;;;;;;8.27;3.25;;;11.10;99.90;;;;;;5054909;28;20040;-78
2022/05/04 08:36:35;;;;;;;7.07;2.38;;;11.20;99.90;;;;;;5086326;28;20047;-79
2022/05/04 08:39:01;;;;;;;7.60;2.70;;;11.30;99.90;;;;;;5060534;28;20135;-80
2022/05/04 08:41:26;;;;;;;5.35;2.97;;;11.40;99.90;;;;;;5079618;28;20095;-78
2022/05/04 08:43:55;;;;;;;5.22;2.40;;;11.50;99.90;;;;;;5081923;28;20049;-78
2022/05/04 08:46:23;;;;;;;5.28;2.50;;;11.60;99.90;;;;;;5081075;28;20044;-79
2022/05/04 08:48:49;;;;;;;6.60;2.75;;;11.80;99.90;;;;;;5087883;28;20049;-76
2022/05/04 08:51:18;;;;;;;6.05;2.45;;;11.80;99.90;;;;;;5088471;28;20051;-81
2022/05/04 08:53:45;;;;;;;7.45;3.08;;;11.80;99.90;;;;;;5091401;28;20921;-81
2022/05/04 08:56:13;;;;;;;5.75;2.40;;;11.60;99.90;;;;;;5080802;28;20045;-76
2022/05/04 08:58:40;;;;;;;7.15;3.08;;;11.50;99.90;;;;;;5086396;28;20647;-78
2022/05/04 09:01:06;;;;;;;6.50;2.60;;;11.40;99.90;;;;;;5094347;28;20490;-76
2022/05/04 09:03:34;;;;;;;5.25;2.60;;;11.30;99.90;;;;;;5091317;28;20584;-80
2022/05/04 09:06:00;;;;;;;6.03;2.85;;;11.30;99.90;;;;;;5073535;28;20041;-79
2022/05/04 09:08:26;;;;;;;6.15;3.30;;;11.30;99.90;;;;;;5076263;28;20361;-76
2022/05/04 09:10:52;;;;;;;6.22;2.80;;;11.30;99.90;;;;;;5083057;28;20043;-81
2022/05/04 09:13:18;;;;;;;6.05;2.85;;;11.20;99.90;;;;;;5072075;28;20407;-78
2022/05/04 09:15:44;;;;;;;5.35;2.40;;;11.20;99.90;;;;;;5074261;28;20048;-82
2022/05/04 09:18:13;;;;;;;6.47;3.38;;;11.10;99.90;;;;;;5073017;28;20458;-78
2022/05/04 09:20:58;;;;;;;5.72;2.28;;;11.30;99.90;;;;;;5077947;28;20541;-80
2022/05/04 09:23:29;;;;;;;4.43;2.40;;;11.70;99.90;;;;;;5088890;28;20707;-80
2022/05/04 09:26:05;;;;;;;8.85;2.88;;;12.10;99.90;;;;;;5094186;28;20041;-79
2022/05/04 09:28:32;;;;;;;7.03;2.70;;;12.20;99.90;;;;;;5065290;28;20056;-79
2022/05/04 09:31:06;;;;;;;5.65;2.72;;;12.30;99.90;;;;;;5078852;28;20061;-79
2022/05/04 09:33:35;;;;;;;5.03;2.50;;;12.40;99.90;;;;;;5062862;28;20115;-79
2022/05/04 09:36:05;;;;;;;5.72;2.33;;;12.30;99.90;;;;;;5084845;28;20614;-79
2022/05/04 09:46:52;;;;;;;4.88;2.70;;;12.00;99.90;;;;;;5063235;28;20048;-75
2022/05/04 09:49:19;;;;;;;5.28;2.72;;;11.70;99.90;;;;;;5082852;28;20041;-80
2022/05/04 09:51:53;;;;;;;6.43;2.50;;;11.40;99.90;;;;;;5055999;28;20040;-79
2022/05/04 09:54:25;;;;;;;4.57;2.50;;;11.50;99.90;;;;;;5079654;28;20043;-79
2022/05/04 09:57:03;;;;;;;5.93;2.58;;;11.70;99.90;;;;;;5076677;28;20036;-81
2022/05/04 09:59:36;;;;;;;5.75;2.50;;;11.70;99.90;;;;;;5063235;28;20048;-81
2022/05/04 10:02:04;;;;;;;6.07;2.97;;;12.00;99.90;;;;;;5068070;28;20047;-74
2022/05/04 10:04:33;;;;;;;4.25;2.58;;;12.20;99.90;;;;;;5068634;28;20052;-77
2022/05/04 10:07:00;;;;;;;6.07;2.70;;;12.20;99.90;;;;;;5055731;28;20051;-77
2022/05/04 10:09:27;;;;;;;4.65;2.55;;;12.30;99.90;;;;;;5060646;28;20055;-82
2022/05/04 10:11:57;;;;;;;10.23;2.85;;;12.30;99.90;;;;;;5076498;28;20052;-81
2022/05/04 10:14:28;;;;;;;6.03;2.50;;;12.40;99.90;;;;;;5079338;28;20668;-77
2022/05/04 10:17:14;;;;;;;7.65;2.85;;;12.50;99.90;;;;;;5060482;28;20060;-81
2022/05/04 10:19:50;;;;;;;6.80;2.60;;;12.50;99.90;;;;;;5092532;28;20094;-81
2022/05/04 10:22:24;;;;;;;6.05;2.92;;;12.50;99.90;;;;;;5066196;28;20048;-78
2022/05/04 10:24:51;;;;;;;6.70;3.38;;;12.40;99.90;;;;;;5086113;28;20334;-77
2022/05/04 10:27:17;;;;;;;5.90;2.65;;;12.40;99.90;;;;;;5085781;28;20044;-77
2022/05/04 10:32:36;;;;;;;5.60;2.80;;;12.90;99.90;;;;;;5061506;28;20037;-78
2022/05/04 10:35:11;;;;;;;7.32;2.70;;;13.10;99.90;;;;;;5046573;28;20048;-77
2022/05/04 10:37:57;;;;;;;7.80;2.40;;;13.20;99.90;;;;;;5070700;28;20058;-79
2022/05/04 10:40:35;;;;;;;5.95;2.63;;;13.20;99.90;;;;;;5082591;28;20060;-79
2022/05/04 10:43:04;;;;;;;5.57;2.25;;;13.30;99.90;;;;;;5076062;28;20113;-79
2022/05/04 10:45:37;;;;;;;5.85;2.33;;;13.40;99.90;;;;;;5080805;28;20500;-78
2022/05/04 10:48:15;;;;;;;7.68;2.67;;;13.50;99.90;;;;;;5092004;28;20061;-80
2022/05/04 10:51:02;;;;;;;7.47;2.75;;;13.40;99.90;;;;;;5072030;28;20060;-78
2022/05/04 10:53:28;;;;;;;;;;;13.30;99.90;;;;;;5063577;28;20055;-79
2022/05/04 10:56:02;;;;;;;6.40;2.20;;;13.20;99.90;;;;;;5082526;28;19939;-78
2022/05/04 10:58:36;;;;;;;4.35;2.45;;;13.30;99.90;;;;;;5083236;28;20044;-79
2022/05/04 11:01:09;;;;;;;4.70;2.70;;;13.30;99.90;;;;;;5080419;28;20047;-79
2022/05/04 11:03:36;;;;;;;7.15;2.50;;;13.30;99.90;;;;;;5094610;28;20048;-79
2022/05/04 11:06:11;;;;;;;4.53;2.42;;;13.40;99.90;;;;;;5078347;28;20084;-76
2022/05/04 11:08:48;;;;;;;6.60;2.70;;;13.60;99.90;;;;;;5082558;28;20083;-77
2022/05/04 11:11:14;;;;;;;6.60;2.40;;;13.60;99.90;;;;;;5076120;28;20056;-77
2022/05/04 11:13:43;;;;;;;4.22;2.47;;;13.50;99.90;;;;;;5081642;28;20041;-77
2022/05/04 11:16:09;;;;;;;7.38;3.08;;;13.60;99.90;;;;;;5084693;28;20040;-76
2022/05/04 11:18:35;;;;;;;5.03;2.70;;;13.60;99.90;;;;;;5059636;28;20087;-81
2022/05/04 11:21:05;;;;;;;7.10;2.65;;;13.60;99.90;;;;;;5073344;28;20055;-78
2022/05/04 11:23:31;;;;;;;4.55;2.15;;;13.50;99.90;;;;;;5053613;28;20040;-79
2022/05/04 11:25:57;;;;;;;7.85;2.50;;;13.50;99.90;;;;;;5086701;28;20064;-78
2022/05/04 11:28:24;;;;;;;7.82;2.40;;;13.70;99.90;;;;;;5084627;28;20105;-78
2022/05/04 11:30:52;;;;;;;4.93;2.28;;;13.90;99.90;;;;;;5058482;28;20488;-77
2022/05/04 11:33:18;;;;;;;4.88;2.42;;;14.10;99.90;;;;;;5079585;28;20095;-77
2022/05/04 11:35:50;;;;;;;5.38;2.20;;;14.40;99.90;;;;;;5074591;28;20073;-77
2022/05/04 11:38:20;;;;;;;5.38;2.58;;;14.60;99.90;;;;;;5048378;28;20037;-78
2022/05/04 11:40:47;;;;;;;5.75;2.10;;;14.60;99.90;;;;;;5076487;28;20067;-78
2022/05/04 11:43:27;;;;;;;5.60;2.53;;;14.60;99.90;;;;;;5078079;28;20037;-79
2022/05/04 11:45:54;;;;;;;5.95;2.50;;;14.50;99.90;;;;;;5063454;28;20470;-79
2022/05/04 11:48:21;;;;;;;6.18;2.90;;;14.50;99.90;;;;;;5074751;28;20056;-77
2022/05/04 11:50:47;;;;;;;8.50;2.58;;;14.50;99.90;;;;;;5076396;28;20529;-78
2022/05/04 11:53:13;;;;;;;4.75;1.90;;;14.50;99.90;;;;;;5056785;28;20183;-78
2022/05/04 11:55:39;;;;;;;4.75;2.13;;;14.50;99.90;;;;;;5062136;28;20041;-77
2022/05/04 11:58:10;;;;;;;6.22;2.20;;;14.50;99.90;;;;;;5082229;28;20044;-77
2022/05/04 12:00:39;;;;;;;5.45;2.40;;;14.60;99.90;;;;;;5076242;28;20044;-78
2022/05/04 12:03:05;;;;;;;5.60;2.15;;;14.70;99.90;;;;;;5078587;28;20053;-77
2022/05/04 12:05:33;;;;;;;4.78;2.17;;;14.80;99.90;;;;;;5054810;28;20068;-75
2022/05/04 12:08:04;;;;;;;5.43;2.30;;;14.90;99.90;;;;;;5057596;28;20056;-76
2022/05/04 12:10:31;;;;;;;6.68;2.38;;;14.90;99.90;;;;;;5058427;28;20076;-77
2022/05/04 12:13:00;;;;;;;5.13;2.67;;;14.90;99.90;;;;;;5066669;28;20040;-78
2022/05/04 12:15:30;;;;;;;5.40;2.97;;;14.90;99.90;;;;;;5076013;28;20110;-76
2022/05/04 12:18:05;;;;;;;5.38;2.17;;;15.00;99.90;;;;;;5064461;28;20052;-78
2022/05/04 12:20:34;;;;;;;5.38;2.65;;;15.10;99.90;;;;;;5058773;28;20056;-76
2022/05/04 12:23:01;;;;;;;5.15;2.30;;;15.20;99.90;;;;;;5080418;28;20048;-76
2022/05/04 12:25:27;;;;;;;3.63;2.22;;;15.20;99.90;;;;;;5083189;28;20045;-77
2022/05/04 12:27:55;;;;;;;7.80;2.80;;;15.30;99.90;;;;;;5074451;28;20044;-76
2022/05/04 12:33:09;;;;;;;5.30;2.35;;;15.50;99.90;;;;;;5075934;28;20201;-78
2022/05/04 12:35:43;;;;;;;4.75;2.67;;;15.40;99.90;;;;;;5068422;28;20056;-78
2022/05/04 12:38:15;;;;;;;11.10;2.70;;;15.30;99.90;;;;;;5088578;28;20064;-78
2022/05/04 12:40:41;;;;;;;5.03;2.30;;;15.30;99.90;;;;;;5042962;28;20052;-77
2022/05/04 12:43:08;;;;;;;6.07;2.55;;;15.40;99.90;;;;;;5075090;28;20114;-79
2022/05/04 12:45:35;;;;;;;4.65;2.03;;;15.50;99.90;;;;;;5079556;28;20100;-78
2022/05/04 12:48:04;;;;;;;5.15;2.28;;;15.60;99.90;;;;;;5062765;28;20079;-76
2022/05/04 12:50:29;;;;;;;4.45;2.25;;;15.70;99.90;;;;;;5063753;28;20137;-77
2022/05/04 12:52:56;;;;;;;5.50;2.22;;;15.70;99.90;;;;;;5082739;28;20045;-78
2022/05/04 12:58:10;;;;;;;5.72;2.13;;;16.00;99.90;;;;;;5076063;28;20052;-78
2022/05/04 13:00:36;;;;;;;5.28;2.53;;;15.90;99.90;;;;;;5051613;28;20061;-77
2022/05/04 13:03:03;;;;;;;4.65;2.58;;;16.10;99.90;;;;;;5097344;28;20059;-77
2022/05/04 13:05:28;;;;;;;4.72;2.33;;;16.20;99.90;;;;;;5077625;28;20048;-77
2022/05/04 13:07:54;;;;;;;5.85;2.15;;;16.10;99.90;;;;;;5056117;28;20041;-76
2022/05/04 13:10:20;;;;;;;4.47;2.40;;;16.00;99.90;;;;;;5072788;28;20135;-77
2022/05/04 13:12:45;;;;;;;5.50;2.45;;;15.90;99.90;;;;;;5096018;28;20035;-74
2022/05/04 13:15:11;;;;;;;6.22;2.10;;;16.00;99.90;;;;;;5086141;28;20128;-77
2022/05/04 13:17:37;;;;;;;7.25;2.58;;;16.10;99.90;;;;;;5077269;28;20041;-76
2022/05/04 13:20:03;;;;;;;4.68;2.20;;;16.40;99.90;;;;;;5051363;28;20040;-78
2022/05/04 13:22:30;;;;;;;5.03;2.10;;;16.60;99.90;;;;;;5064194;28;20048;-79
2022/05/04 13:24:59;;;;;;;5.50;2.35;;;16.50;99.90;;;;;;5078619;28;20056;-77
2022/05/04 13:27:25;;;;;;;8.55;2.92;;;16.40;99.90;;;;;;5077325;28;20044;-77
2022/05/04 13:29:50;;;;;;;8.10;2.50;;;16.40;99.90;;;;;;5066467;28;20059;-75
2022/05/04 13:32:16;;;;;;;5.30;2.00;;;16.40;99.90;;;;;;5051509;28;20117;-77